createdAt,value
2022-12-13T00:01:48.022Z,-4.31
2022-12-13T00:04:18.125Z,-4.30
2022-12-13T00:06:46.520Z,-4.32
2022-12-13T00:09:15.512Z,-4.26
2022-12-13T00:11:44.125Z,-4.20
2022-12-13T00:14:14.180Z,-4.22
2022-12-13T00:16:46.476Z,-4.19
2022-12-13T00:19:15.120Z,-4.20
2022-12-13T00:21:45.389Z,-4.16
2022-12-13T00:27:15.546Z,-4.19
2022-12-13T00:29:43.581Z,-4.18
2022-12-13T00:32:12.052Z,-4.17
2022-12-13T00:34:40.278Z,-4.28
2022-12-13T00:37:10.374Z,-4.28
2022-12-13T00:39:38.909Z,-4.22
2022-12-13T00:42:07.150Z,-4.28
2022-12-13T00:44:35.242Z,-4.27
2022-12-13T00:47:03.830Z,-4.25
2022-12-13T00:49:32.457Z,-4.31
2022-12-13T00:52:01.014Z,-4.21
2022-12-13T00:54:31.650Z,-4.21
2022-12-13T00:57:00.536Z,-4.21
2022-12-13T00:59:29.386Z,-4.29
2022-12-13T01:01:58.132Z,-4.32
2022-12-13T01:04:26.207Z,-4.25
2022-12-13T01:06:55.349Z,-4.27
2022-12-13T01:09:27.562Z,-4.14
2022-12-13T01:12:00.458Z,-4.28
2022-12-13T01:14:29.535Z,-4.27
2022-12-13T01:16:58.161Z,-4.28
2022-12-13T01:19:27.770Z,-4.22
2022-12-13T01:21:56.089Z,-4.24
2022-12-13T01:24:24.882Z,-4.24
2022-12-13T01:26:53.462Z,-4.21
2022-12-13T01:29:29.859Z,-4.27
2022-12-13T01:32:00.332Z,-4.31
2022-12-13T01:34:36.413Z,-4.37
2022-12-13T01:37:04.610Z,-4.35
2022-12-13T01:39:38.392Z,-4.22
2022-12-13T01:42:07.519Z,-4.36
2022-12-13T01:45:08.219Z,-4.33
2022-12-13T01:47:42.138Z,-4.48
2022-12-13T01:50:15.114Z,-4.24
2022-12-13T01:52:45.437Z,-4.30
2022-12-13T01:55:15.434Z,-4.49
2022-12-13T01:57:46.843Z,-4.57
2022-12-13T02:00:21.186Z,-4.50
2022-12-13T02:02:50.595Z,-4.52
2022-12-13T02:05:26.707Z,-4.48
2022-12-13T02:07:57.207Z,-4.49
2022-12-13T02:10:26.356Z,-4.46
2022-12-13T02:12:54.637Z,-4.65
2022-12-13T02:15:24.720Z,-4.67
2022-12-13T02:18:16.082Z,-4.82
2022-12-13T02:20:59.473Z,-4.83
2022-12-13T02:23:47.948Z,-4.58
2022-12-13T02:26:43.097Z,-4.52
2022-12-13T02:29:42.574Z,-4.50
2022-12-13T02:32:19.278Z,-4.47
2022-12-13T02:34:53.018Z,-4.44
2022-12-13T02:37:25.586Z,-4.40
2022-12-13T02:40:01.786Z,-4.38
2022-12-13T02:42:36.963Z,-4.34
2022-12-13T02:45:14.468Z,-4.32
2022-12-13T02:47:49.870Z,-4.34
2022-12-13T02:50:20.455Z,-4.44
2022-12-13T02:52:50.120Z,-4.38
2022-12-13T02:55:18.508Z,-4.44
2022-12-13T02:57:48.725Z,-4.55
2022-12-13T03:00:20.450Z,-4.76
2022-12-13T03:03:04.961Z,-4.74
2022-12-13T03:05:59.213Z,-4.75
2022-12-13T03:08:37.025Z,-4.67
2022-12-13T03:11:09.772Z,-4.61
2022-12-13T03:13:44.938Z,-4.44
2022-12-13T03:16:26.171Z,-4.63
2022-12-13T03:18:59.137Z,-4.50
2022-12-13T03:21:27.464Z,-4.58
2022-12-13T03:23:56.082Z,-4.61
2022-12-13T03:26:27.760Z,-4.65
2022-12-13T03:28:56.045Z,-4.52
2022-12-13T03:31:24.299Z,-4.48
2022-12-13T03:33:52.422Z,-4.53
2022-12-13T03:36:23.059Z,-4.78
2022-12-13T03:38:53.553Z,-4.83
2022-12-13T03:41:31.302Z,-4.75
2022-12-13T03:44:00.445Z,-4.73
2022-12-13T03:46:29.066Z,-4.95
2022-12-13T03:48:57.489Z,-4.74
2022-12-13T03:51:28.322Z,-4.86
2022-12-13T03:53:57.210Z,-4.79
2022-12-13T03:56:26.508Z,-4.82
2022-12-13T03:58:55.053Z,-4.73
2022-12-13T04:01:23.983Z,-4.75
2022-12-13T04:03:52.444Z,-4.75
2022-12-13T04:06:22.725Z,-4.85
2022-12-13T04:08:56.335Z,-4.81
2022-12-13T04:11:43.411Z,-4.76
2022-12-13T04:14:22.894Z,-4.86
2022-12-13T04:16:52.707Z,-5.02
2022-12-13T04:19:23.252Z,-4.90
2022-12-13T04:21:52.708Z,-4.95
2022-12-13T04:24:31.372Z,-4.98
2022-12-13T04:27:01.049Z,-4.96
2022-12-13T04:29:34.322Z,-5.02
2022-12-13T04:32:04.211Z,-4.95
2022-12-13T04:34:37.335Z,-4.97
2022-12-13T04:37:06.134Z,-5.00
2022-12-13T04:39:35.618Z,-4.97
2022-12-13T04:42:05.937Z,-4.98
2022-12-13T04:44:37.086Z,-4.95
2022-12-13T04:47:06.154Z,-4.82
2022-12-13T04:49:35.134Z,-4.87
2022-12-13T04:52:03.811Z,-4.70
2022-12-13T04:54:36.149Z,-4.63
2022-12-13T04:57:07.979Z,-4.67
2022-12-13T04:59:36.093Z,-4.78
2022-12-13T05:02:04.862Z,-4.61
2022-12-13T05:04:33.516Z,-4.67
2022-12-13T05:07:01.647Z,-4.59
2022-12-13T05:09:29.652Z,-4.65
2022-12-13T05:12:00.976Z,-4.79
2022-12-13T05:14:31.721Z,-5.03
2022-12-13T05:17:00.065Z,-4.95
2022-12-13T05:19:31.616Z,-4.91
2022-12-13T05:22:02.071Z,-5.02
2022-12-13T05:24:31.845Z,-5.04
2022-12-13T05:27:02.527Z,-5.07
2022-12-13T05:29:56.314Z,-4.88
2022-12-13T05:32:42.772Z,-4.90
2022-12-13T05:35:13.383Z,-4.97
2022-12-13T05:37:41.777Z,-4.88
2022-12-13T05:40:11.119Z,-4.97
2022-12-13T05:42:40.276Z,-4.92
2022-12-13T05:45:19.012Z,-4.97
2022-12-13T05:47:48.224Z,-4.85
2022-12-13T05:50:19.359Z,-4.99
2022-12-13T05:52:47.980Z,-5.02
2022-12-13T05:55:16.488Z,-5.02
2022-12-13T05:57:50.501Z,-5.10
2022-12-13T06:00:30.455Z,-5.11
2022-12-13T06:03:00.467Z,-5.24
2022-12-13T06:05:30.163Z,-5.22
2022-12-13T06:07:59.259Z,-5.05
2022-12-13T06:10:34.852Z,-5.08
2022-12-13T06:13:21.071Z,-5.13
2022-12-13T06:15:52.058Z,-5.03
2022-12-13T06:18:31.617Z,-5.17
2022-12-13T06:21:01.513Z,-4.95
2022-12-13T06:23:32.424Z,-5.02
2022-12-13T06:26:00.589Z,-5.16
2022-12-13T06:28:28.875Z,-5.07
2022-12-13T06:31:01.239Z,-5.13
2022-12-13T06:33:30.045Z,-5.02
2022-12-13T06:35:59.192Z,-5.06
2022-12-13T06:38:32.014Z,-5.21
2022-12-13T06:41:18.440Z,-5.38
2022-12-13T06:43:48.360Z,-5.23
2022-12-13T06:46:18.757Z,-5.04
2022-12-13T06:48:46.741Z,-5.03
2022-12-13T06:51:22.427Z,-5.06
2022-12-13T06:53:52.123Z,-4.95
2022-12-13T06:56:20.681Z,-5.18
2022-12-13T06:58:48.616Z,-5.29
2022-12-13T07:01:24.548Z,-5.26
2022-12-13T07:03:55.316Z,-5.22
2022-12-13T07:06:25.057Z,-5.32
2022-12-13T07:08:55.493Z,-5.21
2022-12-13T07:11:25.160Z,-5.25
2022-12-13T07:13:53.931Z,-5.20
2022-12-13T07:16:24.775Z,-5.30
2022-12-13T07:19:01.174Z,-5.32
2022-12-13T07:21:30.626Z,-5.27
2022-12-13T07:23:58.738Z,-5.10
2022-12-13T07:26:27.335Z,-5.25
2022-12-13T07:28:55.798Z,-5.24
2022-12-13T07:31:28.747Z,-5.24
2022-12-13T07:33:58.505Z,-5.21
2022-12-13T07:36:26.855Z,-5.09
2022-12-13T07:38:56.672Z,-5.06
2022-12-13T07:41:26.674Z,-4.99
2022-12-13T07:43:57.283Z,-5.07
2022-12-13T07:46:33.500Z,-5.03
2022-12-13T07:49:03.012Z,-5.07
2022-12-13T07:51:31.355Z,-4.99
2022-12-13T07:53:59.709Z,-5.12
2022-12-13T07:56:27.917Z,-5.01
2022-12-13T07:58:56.117Z,-4.95
2022-12-13T08:01:24.548Z,-5.01
2022-12-13T08:03:54.636Z,-5.01
2022-12-13T08:06:23.013Z,-5.14
2022-12-13T08:08:51.899Z,-5.04
2022-12-13T08:11:22.015Z,-4.88
2022-12-13T08:13:50.155Z,-4.87
2022-12-13T08:16:28.024Z,-4.95
2022-12-13T08:19:02.154Z,-5.04
2022-12-13T08:24:24.865Z,-4.92
2022-12-13T08:26:55.731Z,-4.82
2022-12-13T08:29:34.838Z,-4.88
2022-12-13T08:32:04.419Z,-4.82
2022-12-13T08:34:33.982Z,-4.81
2022-12-13T08:37:03.845Z,-4.64
2022-12-13T08:39:33.958Z,-4.74
2022-12-13T08:42:16.388Z,-4.74
2022-12-13T08:44:47.953Z,-4.67
2022-12-13T08:47:22.875Z,-4.70
2022-12-13T08:49:56.125Z,-4.64
2022-12-13T08:52:30.570Z,-4.68
2022-12-13T08:54:58.813Z,-4.55
2022-12-13T08:57:27.503Z,-4.64
2022-12-13T08:59:56.298Z,-4.42
2022-12-13T09:02:24.710Z,-4.43
2022-12-13T09:04:57.039Z,-4.49
2022-12-13T09:07:29.718Z,-4.33
2022-12-13T09:09:58.411Z,-4.37
2022-12-13T09:12:35.914Z,-4.31
2022-12-13T09:15:22.568Z,-4.18
2022-12-13T09:17:53.010Z,-4.18
2022-12-13T09:20:29.684Z,-3.89
2022-12-13T09:23:01.936Z,-4.11
2022-12-13T09:25:37.378Z,-4.01
2022-12-13T09:28:10.068Z,-4.08
2022-12-13T09:30:39.139Z,-4.32
2022-12-13T09:33:28.033Z,-4.09
2022-12-13T09:35:57.917Z,-4.06
2022-12-13T09:38:26.236Z,-4.17
2022-12-13T09:40:58.588Z,-4.02
2022-12-13T09:43:33.518Z,-3.72
2022-12-13T09:46:24.391Z,-3.88
2022-12-13T09:49:01.821Z,-3.76
2022-12-13T09:51:41.181Z,-3.61
2022-12-13T09:54:23.873Z,-3.58
2022-12-13T09:56:57.765Z,-3.41
2022-12-13T09:59:33.688Z,-3.62
2022-12-13T10:02:13.957Z,-3.66
2022-12-13T10:04:43.433Z,-3.48
2022-12-13T10:07:21.031Z,-3.64
2022-12-13T10:09:54.699Z,-3.48
2022-12-13T10:12:23.816Z,-3.63
2022-12-13T10:14:58.553Z,-3.71
2022-12-13T10:17:38.065Z,-3.65
2022-12-13T10:20:10.254Z,-3.56
2022-12-13T10:22:39.731Z,-3.61
2022-12-13T10:25:09.745Z,-3.29
2022-12-13T10:27:40.497Z,-3.18
2022-12-13T10:30:12.071Z,-3.28
2022-12-13T10:32:55.148Z,-3.20
2022-12-13T10:35:26.704Z,-2.98
2022-12-13T10:37:57.867Z,-2.94
2022-12-13T10:40:34.200Z,-2.86
2022-12-13T10:43:13.387Z,-3.11
2022-12-13T10:45:43.014Z,-3.04
2022-12-13T10:48:22.368Z,-2.85
2022-12-13T10:51:04.039Z,-3.06
2022-12-13T10:53:36.032Z,-2.92
2022-12-13T10:56:05.145Z,-2.13
2022-12-13T10:58:40.489Z,-0.89
2022-12-13T11:01:21.594Z,0.34
2022-12-13T11:04:03.541Z,0.63
2022-12-13T11:06:43.938Z,0.13
2022-12-13T11:09:22.960Z,-0.88
2022-12-13T11:11:58.267Z,-1.21
2022-12-13T11:14:41.949Z,-1.41
2022-12-13T11:17:34.322Z,-1.66
2022-12-13T11:20:10.452Z,-1.93
2022-12-13T11:22:39.942Z,-1.63
2022-12-13T11:25:18.566Z,-1.75
2022-12-13T11:27:59.578Z,-1.52
2022-12-13T11:30:37.501Z,-1.66
2022-12-13T11:33:28.865Z,-1.85
2022-12-13T11:36:09.709Z,-1.88
2022-12-13T11:38:57.813Z,-2.06
2022-12-13T11:41:31.116Z,-2.06
2022-12-13T11:44:05.303Z,-1.96
2022-12-13T11:46:39.898Z,-1.95
2022-12-13T11:49:16.524Z,-1.73
2022-12-13T11:51:48.123Z,-1.64
2022-12-13T11:54:26.393Z,-1.55
2022-12-13T11:57:00.205Z,-1.67
2022-12-13T11:59:40.728Z,-1.49
2022-12-13T12:02:25.383Z,-1.22
2022-12-13T12:05:00.417Z,-1.81
2022-12-13T12:08:12.727Z,-1.51
2022-12-13T12:17:42.279Z,-1.45
2022-12-13T12:20:23.452Z,-1.54
2022-12-13T12:23:02.457Z,-1.50
2022-12-13T12:25:42.466Z,-1.55
2022-12-13T12:28:19.190Z,-1.20
2022-12-13T12:30:58.891Z,-1.18
2022-12-13T12:33:38.138Z,-1.14
2022-12-13T12:36:30.901Z,-1.03
2022-12-13T12:39:26.554Z,-1.18
2022-12-13T12:42:12.497Z,-0.93
2022-12-13T12:44:50.908Z,-0.87
2022-12-13T12:48:07.207Z,-0.86
2022-12-13T12:53:55.835Z,-1.05
2022-12-13T12:56:41.648Z,-1.21
2022-12-13T12:59:19.829Z,-1.27
2022-12-13T13:01:58.354Z,-1.25
2022-12-13T13:04:36.012Z,-1.31
2022-12-13T13:07:23.079Z,-1.32
2022-12-13T13:09:54.716Z,-1.17
2022-12-13T13:12:30.200Z,-1.27
2022-12-13T13:15:00.748Z,-1.37
2022-12-13T13:17:47.675Z,-1.33
2022-12-13T13:20:24.397Z,-1.27
2022-12-13T13:23:17.442Z,-1.11
2022-12-13T13:26:16.060Z,-1.20
2022-12-13T13:28:35.360Z,-1.26
2022-12-13T13:31:06.374Z,-1.23
2022-12-13T13:33:46.340Z,-1.10
2022-12-13T13:36:46.532Z,-1.17
2022-12-13T13:39:19.924Z,-1.23
2022-12-13T13:41:57.322Z,-1.23
2022-12-13T13:44:55.308Z,-1.27
2022-12-13T13:47:39.108Z,-1.15
2022-12-13T13:50:44.714Z,-1.19
2022-12-13T13:54:00.547Z,-1.31
2022-12-13T13:56:45.102Z,-1.23
2022-12-13T13:59:54.905Z,-1.11
2022-12-13T14:03:02.086Z,-1.30
2022-12-13T14:06:00.413Z,-1.26
2022-12-13T14:08:42.435Z,-1.18
2022-12-13T14:11:35.667Z,-1.15
2022-12-13T14:14:38.879Z,-1.24
2022-12-13T14:17:45.740Z,-1.41
2022-12-13T14:20:46.442Z,-1.53
2022-12-13T14:23:26.888Z,-1.55
2022-12-13T14:26:08.740Z,-1.59
2022-12-13T14:28:48.614Z,-1.60
2022-12-13T14:31:23.475Z,-1.67
2022-12-13T14:33:56.689Z,-1.69
2022-12-13T14:36:37.497Z,-1.68
2022-12-13T14:39:24.819Z,-1.77
2022-12-13T14:41:57.752Z,-1.82
2022-12-13T14:44:28.101Z,-1.81
2022-12-13T14:47:01.378Z,-1.86
2022-12-13T14:49:33.033Z,-1.82
2022-12-13T14:52:07.074Z,-1.82
2022-12-13T14:54:42.526Z,-1.95
2022-12-13T14:57:17.587Z,-1.95
2022-12-13T14:59:58.477Z,-1.92
2022-12-13T15:12:15.388Z,-2.23
2022-12-13T15:18:53.485Z,-2.19
2022-12-13T15:21:28.559Z,-2.32
2022-12-13T15:24:07.381Z,-2.25
2022-12-13T15:26:43.230Z,-2.17
2022-12-13T15:29:15.816Z,-2.26
2022-12-13T15:31:48.680Z,-2.27
2022-12-13T15:34:42.299Z,-2.32
2022-12-13T15:37:28.104Z,-2.29
2022-12-13T15:43:00.220Z,-2.33
2022-12-13T15:45:36.391Z,-2.32
2022-12-13T15:48:05.914Z,-2.31
2022-12-13T15:50:37.102Z,-2.32
2022-12-13T15:53:19.062Z,-2.41
2022-12-13T15:55:47.853Z,-2.41
2022-12-13T15:58:26.945Z,-2.32
2022-12-13T16:00:57.270Z,-2.37
2022-12-13T16:03:29.790Z,-2.44
2022-12-13T16:05:59.079Z,-2.46
2022-12-13T16:08:31.973Z,-2.49
2022-12-13T16:11:01.797Z,-2.59
2022-12-13T16:13:33.640Z,-2.52
2022-12-13T16:16:09.379Z,-2.60
2022-12-13T16:18:46.570Z,-2.64
2022-12-13T16:21:31.573Z,-2.70
2022-12-13T16:24:10.003Z,-2.71
2022-12-13T16:30:00.161Z,-2.78
2022-12-13T16:32:44.467Z,-2.80
2022-12-13T16:35:23.210Z,-2.92
2022-12-13T16:37:53.730Z,-2.84
2022-12-13T16:40:32.451Z,-2.86
2022-12-13T16:43:04.761Z,-2.83
2022-12-13T16:45:43.624Z,-2.92
2022-12-13T16:48:18.006Z,-2.95
2022-12-13T16:50:48.341Z,-3.00
2022-12-13T16:53:26.281Z,-2.91
2022-12-13T16:55:58.495Z,-2.95
2022-12-13T16:58:28.118Z,-2.94
2022-12-13T17:00:58.833Z,-2.92
2022-12-13T17:03:28.464Z,-2.92
2022-12-13T17:05:58.977Z,-2.96
2022-12-13T17:08:27.975Z,-2.91
2022-12-13T17:10:58.385Z,-2.99
2022-12-13T17:13:27.468Z,-3.03
2022-12-13T17:15:59.384Z,-3.06
2022-12-13T17:18:29.110Z,-3.06
2022-12-13T17:20:58.504Z,-3.11
2022-12-13T17:23:27.829Z,-3.11
2022-12-13T17:25:58.631Z,-3.13
2022-12-13T17:28:27.254Z,-3.24
2022-12-13T17:30:58.078Z,-3.29
2022-12-13T17:33:29.941Z,-3.24
2022-12-13T17:35:59.197Z,-3.20
2022-12-13T17:38:28.473Z,-3.14
2022-12-13T17:41:02.609Z,-3.34
2022-12-13T17:43:37.444Z,-3.39
2022-12-13T17:46:13.319Z,-3.40
2022-12-13T17:48:45.774Z,-3.30
2022-12-13T17:51:16.254Z,-3.48
2022-12-13T17:53:48.528Z,-3.33
2022-12-13T17:56:19.855Z,-3.45
2022-12-13T17:58:49.045Z,-3.50
2022-12-13T18:01:21.340Z,-3.36
2022-12-13T18:03:50.482Z,-3.41
2022-12-13T18:06:21.605Z,-3.46
2022-12-13T18:08:54.566Z,-3.45
2022-12-13T18:11:34.067Z,-3.44
2022-12-13T18:14:04.387Z,-3.51
2022-12-13T18:16:37.560Z,-3.52
2022-12-13T18:19:08.694Z,-3.51
2022-12-13T18:21:38.417Z,-3.49
2022-12-13T18:24:08.024Z,-3.39
2022-12-13T18:26:39.230Z,-3.55
2022-12-13T18:29:07.851Z,-3.67
2022-12-13T18:31:39.651Z,-3.50
2022-12-13T18:34:09.356Z,-3.56
2022-12-13T18:36:47.341Z,-3.75
2022-12-13T18:39:17.414Z,-3.65
2022-12-13T18:41:50.965Z,-3.66
2022-12-13T18:44:20.329Z,-3.65
2022-12-13T18:47:09.046Z,-3.89
2022-12-13T18:49:40.766Z,-3.72
2022-12-13T18:52:12.016Z,-3.79
2022-12-13T18:54:54.410Z,-3.79
2022-12-13T18:57:28.524Z,-3.94
2022-12-13T19:00:02.509Z,-4.05
2022-12-13T19:02:34.624Z,-3.94
2022-12-13T19:05:04.499Z,-3.92
2022-12-13T19:07:37.290Z,-3.93
2022-12-13T19:10:07.234Z,-3.95
2022-12-13T19:12:43.288Z,-4.08
2022-12-13T19:16:01.220Z,-4.11
2022-12-13T19:18:40.677Z,-4.02
2022-12-13T19:21:22.055Z,-4.15
2022-12-13T19:27:10.493Z,-4.21
2022-12-13T19:33:39.557Z,-4.27
2022-12-13T19:42:28.260Z,-4.30
2022-12-13T19:52:01.772Z,-4.39
2022-12-13T19:54:37.502Z,-4.41
2022-12-13T19:57:20.497Z,-4.28
2022-12-13T20:00:12.160Z,-4.33
2022-12-13T20:02:46.077Z,-4.25
2022-12-13T20:12:41.165Z,-4.38
2022-12-13T20:15:41.603Z,-4.32
2022-12-13T20:39:20.228Z,-4.37
2022-12-13T20:41:48.816Z,-4.32
2022-12-13T20:50:23.380Z,-4.47
2022-12-13T20:56:13.152Z,-4.56
2022-12-13T20:58:50.540Z,-4.55
2022-12-13T21:01:22.238Z,-4.46
2022-12-13T21:03:53.246Z,-4.50
2022-12-13T21:06:31.307Z,-4.50
2022-12-13T21:11:52.055Z,-4.56
2022-12-13T21:14:39.221Z,-4.59
2022-12-13T21:17:11.715Z,-4.70
2022-12-13T21:19:44.567Z,-4.69
2022-12-13T21:22:22.458Z,-4.75
2022-12-13T21:27:35.161Z,-4.68
2022-12-13T21:33:14.676Z,-4.70
2022-12-13T21:35:44.819Z,-4.72
2022-12-13T21:38:13.144Z,-4.61
2022-12-13T21:40:45.977Z,-4.61
2022-12-13T21:43:17.776Z,-4.61
2022-12-13T21:45:46.338Z,-4.69
2022-12-13T21:48:15.947Z,-4.50
2022-12-13T21:50:55.428Z,-4.47
2022-12-13T21:53:34.033Z,-4.45
2022-12-13T21:56:20.262Z,-4.46
2022-12-13T21:59:07.831Z,-4.40
2022-12-13T22:01:50.086Z,-4.45
2022-12-13T22:04:19.233Z,-4.32
2022-12-13T22:06:49.821Z,-4.21
2022-12-13T22:09:17.976Z,-4.25
2022-12-13T22:11:45.946Z,-4.29
2022-12-13T22:14:15.455Z,-4.28
2022-12-13T22:16:43.378Z,-4.32
2022-12-13T22:19:13.764Z,-4.19
2022-12-13T22:21:42.110Z,-4.21
2022-12-13T22:24:10.933Z,-4.30
2022-12-13T22:26:40.554Z,-4.31
2022-12-13T22:29:08.986Z,-4.38
2022-12-13T22:31:38.268Z,-4.48
2022-12-13T22:34:06.168Z,-4.40
2022-12-13T22:36:33.980Z,-4.47
2022-12-13T22:39:02.039Z,-4.41
2022-12-13T22:41:29.968Z,-4.54
2022-12-13T22:43:58.025Z,-4.56
2022-12-13T22:46:26.546Z,-4.62
2022-12-13T22:48:55.855Z,-4.62
2022-12-13T22:51:23.659Z,-4.57
2022-12-13T22:53:52.317Z,-4.61
2022-12-13T22:56:22.050Z,-4.66
2022-12-13T22:58:55.001Z,-4.58
2022-12-13T23:01:26.777Z,-4.64
2022-12-13T23:03:56.817Z,-4.61
2022-12-13T23:06:26.713Z,-4.56
2022-12-13T23:08:56.435Z,-4.69
2022-12-13T23:11:42.688Z,-4.59
2022-12-13T23:14:12.309Z,-4.62
2022-12-13T23:16:40.699Z,-4.64
2022-12-13T23:19:40.565Z,-4.60
2022-12-13T23:22:00.427Z,-4.64
2022-12-13T23:24:28.447Z,-4.64
2022-12-13T23:26:56.264Z,-4.57
2022-12-13T23:29:24.583Z,-4.56
2022-12-13T23:31:52.390Z,-4.63
2022-12-13T23:34:21.918Z,-4.58
2022-12-13T23:36:49.768Z,-4.63
2022-12-13T23:39:17.803Z,-4.57
2022-12-13T23:42:07.868Z,-4.53
2022-12-13T23:44:35.873Z,-4.54
2022-12-13T23:47:05.976Z,-4.52
2022-12-13T23:49:37.734Z,-4.48
2022-12-13T23:52:05.803Z,-4.53
2022-12-13T23:54:33.669Z,-4.56
2022-12-13T23:57:01.519Z,-4.54
2022-12-13T23:59:29.417Z,-4.50
